Fairpartner — PHEC — position and weather

sailwx.info

Track history (hours):
 
Tides and Currents Weather Stations Pressure Air Temp Water Temp Dewpoint Dewpoint Depression Visibility Wind Speed Wind Dir Waves Ship Positions

Fairpartner

Last reported at 2015-Aug-05 16:33 UTC. Time now 2015-Aug-31 08:47 UTC.
Position S 19°08' E 115°38'.
Warning: this ship's position is 25 days out of date.

Length 143 m; beam 27 m.

Type: Cargo ship. MMSI: 246466992.

Date/timePositionNaut miles runAvg speedWind from/ knotsBaromVisibWave heightAir tempDewpointWater temp
2015-Aug-05 16:33S 19°08' E 115°38'1010.3
2015-Aug-05 15:32S 19°19' E 115°38'10 9.9
2015-Aug-05 14:34S 19°29' E 115°38'10 9.6
2015-Aug-05 13:33S 19°38' E 115°38'9 9.4
2015-Aug-05 12:33S 19°48' E 115°37'  
2015-Jul-28 11:15S 12°20' E 129°42'2916.6
2015-Jul-28 09:32S 12°19' E 130°12'1616.9
2015-Jul-28 08:34S 12°19' E 130°28'1615.6
2015-Jul-28 07:33S 12°22' E 130°44'1212.3
2015-Jul-28 06:34S 12°30' E 130°54'2 2.0
2015-Jul-28 05:34S 12°31' E 130°56'0 0.0
2015-Jul-28 04:34S 12°31' E 130°56'0 0.0
2015-Jul-28 03:34S 12°31' E 130°56'0 0.0
2015-Jul-28 02:34S 12°31' E 130°56'0 0.0
2015-Jul-28 01:34S 12°31' E 130°56'0 0.0
2015-Jul-28 00:33S 12°31' E 130°56'0 0.0
2015-Jul-27 23:34S 12°31' E 130°56'0 0.0
2015-Jul-27 22:34S 12°31' E 130°56'0 0.0
2015-Jul-27 21:34S 12°31' E 130°56'0 0.0
2015-Jul-27 20:34S 12°31' E 130°56'0 0.0
2015-Jul-27 19:34S 12°31' E 130°56'0 0.0
2015-Jul-27 18:34S 12°31' E 130°56'0 0.0
2015-Jul-27 17:34S 12°31' E 130°56'0 0.0
2015-Jul-27 16:33S 12°31' E 130°56'0 0.0
2015-Jul-27 15:33S 12°31' E 130°56'0 0.0
2015-Jul-27 14:33S 12°31' E 130°56'0 0.0
2015-Jul-27 13:34S 12°31' E 130°56'0 0.0
2015-Jul-27 12:33S 12°31' E 130°56'0 0.0
2015-Jul-27 11:34S 12°31' E 130°56'0 0.0
2015-Jul-27 10:34S 12°31' E 130°56'0 0.0
2015-Jul-27 09:34S 12°31' E 130°56'0 0.0
2015-Jul-27 08:34S 12°31' E 130°56'0 0.0
2015-Jul-27 07:34S 12°31' E 130°56'0 0.0
2015-Jul-27 06:33S 12°31' E 130°56'0 0.0
2015-Jul-27 05:34S 12°31' E 130°56'0 0.0
2015-Jul-27 04:33S 12°31' E 130°56'0 0.0
2015-Jul-27 03:34S 12°31' E 130°56'0 0.0
2015-Jul-27 02:34S 12°31' E 130°56'0 0.0
2015-Jul-27 01:34S 12°31' E 130°56'0 0.0
2015-Jul-27 00:34S 12°31' E 130°56'0 0.0
2015-Jul-26 23:34S 12°31' E 130°56'0 0.0
2015-Jul-26 22:34S 12°31' E 130°56'0 0.0
2015-Jul-26 21:34S 12°31' E 130°56'0 0.0
2015-Jul-26 20:34S 12°31' E 130°56'0 0.0
2015-Jul-26 19:34S 12°31' E 130°56'0 0.0
2015-Jul-26 18:33S 12°31' E 130°56'0 0.0
2015-Jul-26 17:34S 12°31' E 130°56'0 0.0
2015-Jul-26 16:33S 12°31' E 130°56'  
Track history (hours):
 
Tides and Currents Weather Stations Pressure Air Temp Water Temp Dewpoint Dewpoint Depression Visibility Wind Speed Wind Dir Waves Ship Positions

Fairpartner

Last reported at 2015-Aug-05 16:33 UTC. Time now 2015-Aug-31 08:47 UTC.
Position S 19°08' E 115°38'.
Warning: this ship's position is 25 days out of date.

Length 143 m; beam 27 m.

Type: Cargo ship. MMSI: 246466992.

Date/timePositionNaut miles runAvg speedWind from/ knotsBaromVisibWave heightAir tempDewpointWater temp
2015-Aug-05 16:33S 19°08' E 115°38'1010.3
2015-Aug-05 15:32S 19°19' E 115°38'10 9.9
2015-Aug-05 14:34S 19°29' E 115°38'10 9.6
2015-Aug-05 13:33S 19°38' E 115°38'9 9.4
2015-Aug-05 12:33S 19°48' E 115°37'  
2015-Jul-28 11:15S 12°20' E 129°42'2916.6
2015-Jul-28 09:32S 12°19' E 130°12'1616.9
2015-Jul-28 08:34S 12°19' E 130°28'1615.6
2015-Jul-28 07:33S 12°22' E 130°44'1212.3
2015-Jul-28 06:34S 12°30' E 130°54'2 2.0
2015-Jul-28 05:34S 12°31' E 130°56'0 0.0
2015-Jul-28 04:34S 12°31' E 130°56'0 0.0
2015-Jul-28 03:34S 12°31' E 130°56'0 0.0
2015-Jul-28 02:34S 12°31' E 130°56'0 0.0
2015-Jul-28 01:34S 12°31' E 130°56'0 0.0
2015-Jul-28 00:33S 12°31' E 130°56'0 0.0
2015-Jul-27 23:34S 12°31' E 130°56'0 0.0
2015-Jul-27 22:34S 12°31' E 130°56'0 0.0
2015-Jul-27 21:34S 12°31' E 130°56'0 0.0
2015-Jul-27 20:34S 12°31' E 130°56'0 0.0
2015-Jul-27 19:34S 12°31' E 130°56'0 0.0
2015-Jul-27 18:34S 12°31' E 130°56'0 0.0
2015-Jul-27 17:34S 12°31' E 130°56'0 0.0
2015-Jul-27 16:33S 12°31' E 130°56'0 0.0
2015-Jul-27 15:33S 12°31' E 130°56'0 0.0
2015-Jul-27 14:33S 12°31' E 130°56'0 0.0
2015-Jul-27 13:34S 12°31' E 130°56'0 0.0
2015-Jul-27 12:33S 12°31' E 130°56'0 0.0
2015-Jul-27 11:34S 12°31' E 130°56'0 0.0
2015-Jul-27 10:34S 12°31' E 130°56'0 0.0
2015-Jul-27 09:34S 12°31' E 130°56'0 0.0
2015-Jul-27 08:34S 12°31' E 130°56'0 0.0
2015-Jul-27 07:34S 12°31' E 130°56'0 0.0
2015-Jul-27 06:33S 12°31' E 130°56'0 0.0
2015-Jul-27 05:34S 12°31' E 130°56'0 0.0
2015-Jul-27 04:33S 12°31' E 130°56'0 0.0
2015-Jul-27 03:34S 12°31' E 130°56'0 0.0
2015-Jul-27 02:34S 12°31' E 130°56'0 0.0
2015-Jul-27 01:34S 12°31' E 130°56'0 0.0
2015-Jul-27 00:34S 12°31' E 130°56'0 0.0
2015-Jul-26 23:34S 12°31' E 130°56'0 0.0
2015-Jul-26 22:34S 12°31' E 130°56'0 0.0
2015-Jul-26 21:34S 12°31' E 130°56'0 0.0
2015-Jul-26 20:34S 12°31' E 130°56'0 0.0
2015-Jul-26 19:34S 12°31' E 130°56'0 0.0
2015-Jul-26 18:33S 12°31' E 130°56'0 0.0
2015-Jul-26 17:34S 12°31' E 130°56'0 0.0
2015-Jul-26 16:33S 12°31' E 130°56'  

Dump ship's entire track history